Time;durP1;ratioP1;P1;durP2;ratioP2;P2;SDS_P1;SDS_P2;PMS_P1;PMS_P2;Temp;Humidity;BMP_temperature;BMP_pressure;BME280_temperature;BME280_humidity;BME280_pressure;Samples;Min_cycle;Max_cycle;Signal;HPM_P1;HPM_P2
2022/03/10 00:00:43;;;;;;;9.23;6.35;;;;;;;16.68;30.07;93986.63;4900375;29;20123;-91
2022/03/10 00:03:08;;;;;;;7.13;5.15;;;;;;;16.66;30.27;93996.56;4899640;29;20043;-91
2022/03/10 00:05:34;;;;;;;8.05;5.30;;;;;;;16.66;30.34;93996.56;4915846;29;20398;-90
2022/03/10 00:07:59;;;;;;;8.05;5.05;;;;;;;16.67;30.42;93998.78;4900701;29;20503;-89
2022/03/10 00:10:25;;;;;;;8.00;5.35;;;;;;;16.66;30.41;93999.31;4899793;29;20042;-90
2022/03/10 00:12:51;;;;;;;8.23;4.90;;;;;;;16.64;30.29;94005.25;4915752;29;20036;-90
2022/03/10 00:15:19;;;;;;;6.65;4.65;;;;;;;16.67;30.61;94014.44;4931746;29;20309;-90
2022/03/10 00:17:44;;;;;;;8.18;5.32;;;;;;;16.65;30.37;94012.19;4931057;29;20488;-89
2022/03/10 00:20:10;;;;;;;9.02;4.75;;;;;;;16.67;30.33;94014.44;4899270;28;20042;-89
2022/03/10 00:22:47;;;;;;;6.47;4.57;;;;;;;16.66;30.23;94015.69;4900128;29;20039;-89
2022/03/10 00:25:13;;;;;;;7.63;4.90;;;;;;;16.64;30.32;94010.69;4897291;29;20043;-90
2022/03/10 00:27:39;;;;;;;6.72;5.05;;;;;;;16.65;30.41;94017.66;4881350;29;20542;-90
2022/03/10 00:30:05;;;;;;;9.85;4.80;;;;;;;16.67;30.20;94019.91;4885037;28;20052;-89
2022/03/10 00:32:30;;;;;;;7.50;4.70;;;;;;;16.70;30.28;94018.91;4915649;29;20046;-89
2022/03/10 00:34:56;;;;;;;5.57;4.18;;;;;;;16.64;30.51;94018.88;4931427;29;20036;-90
2022/03/10 00:37:21;;;;;;;6.38;4.18;;;;;;;16.64;30.28;94018.88;4899280;28;20039;-90
2022/03/10 00:39:47;;;;;;;8.05;4.97;;;;;;;16.64;30.22;94020.88;4900161;29;20658;-91
2022/03/10 00:42:13;;;;;;;5.93;4.38;;;;;;;16.63;30.29;94025.59;4895711;29;20040;-92
2022/03/10 00:44:38;;;;;;;8.23;4.85;;;;;;;16.67;30.77;94023.34;4860847;29;20420;-89
2022/03/10 00:47:04;;;;;;;7.00;5.00;;;;;;;16.64;30.36;94010.69;4860399;29;20044;-91
2022/03/10 00:49:29;;;;;;;10.45;5.03;;;;;;;16.63;30.49;94008.44;4860269;29;20084;-89
2022/03/10 00:51:54;;;;;;;5.05;3.92;;;;;;;16.65;30.51;94014.94;4859225;29;20381;-91
2022/03/10 00:54:20;;;;;;;6.50;4.45;;;;;;;16.63;30.54;94011.94;4892521;29;20416;-90
2022/03/10 00:56:45;;;;;;;4.82;3.75;;;;;;;16.63;30.30;94011.16;4845430;29;20056;-89
2022/03/10 00:59:11;;;;;;;6.65;4.30;;;;;;;16.66;30.41;94013.69;4845287;29;20108;-90
2022/03/10 01:01:36;;;;;;;6.57;4.25;;;;;;;16.63;30.39;94022.06;4845182;29;20197;-91
2022/03/10 01:04:01;;;;;;;6.43;4.15;;;;;;;16.62;30.39;94017.84;4844641;29;20067;-89
2022/03/10 01:06:27;;;;;;;5.78;4.07;;;;;;;16.61;30.46;94019.81;4860849;29;20543;-90
2022/03/10 01:08:52;;;;;;;6.05;4.40;;;;;;;16.64;30.31;94018.88;4845439;29;20037;-89
2022/03/10 01:11:18;;;;;;;7.75;4.63;;;;;;;16.63;30.56;94016.63;4860111;29;20041;-90
2022/03/10 01:13:43;;;;;;;5.40;4.00;;;;;;;16.61;30.53;94016.34;4875612;29;20116;-90
2022/03/10 01:16:08;;;;;;;7.15;4.05;;;;;;;16.60;30.40;94023.03;4871372;29;20037;-89
2022/03/10 01:18:35;;;;;;;6.25;3.97;;;;;;;16.64;30.63;94018.88;4892255;29;20120;-90
2022/03/10 01:21:00;;;;;;;6.25;4.05;;;;;;;16.64;30.32;94018.88;4862875;29;20045;-90
2022/03/10 01:23:26;;;;;;;7.35;4.22;;;;;;;16.61;30.61;94019.06;4876910;29;20357;-93
2022/03/10 01:25:51;;;;;;;4.78;3.75;;;;;;;16.61;30.31;94021.81;4873556;29;20065;-90
2022/03/10 01:28:17;;;;;;;5.93;4.00;;;;;;;16.61;30.25;94021.81;4843465;29;20052;-90
2022/03/10 01:30:42;;;;;;;5.05;3.95;;;;;;;16.61;30.39;94019.06;4863731;29;20100;-92
2022/03/10 01:33:08;;;;;;;6.30;4.10;;;;;;;16.59;30.36;94021.53;4862655;29;20052;-90
2022/03/10 01:35:34;;;;;;;5.50;3.80;;;;;;;16.60;30.62;94031.22;4832835;29;20040;-90
2022/03/10 01:37:59;;;;;;;4.47;3.30;;;;;;;16.58;30.49;94020.78;4847859;29;20521;-89
2022/03/10 01:40:25;;;;;;;9.35;3.92;;;;;;;16.61;30.44;94024.53;4847800;29;20096;-90
2022/03/10 01:42:50;;;;;;;6.78;3.83;;;;;;;16.63;30.75;94028.31;4862032;29;20040;-90
2022/03/10 01:45:16;;;;;;;4.63;3.78;;;;;;;16.61;30.81;94022.56;4866139;29;20049;-93
2022/03/10 01:47:41;;;;;;;7.85;3.83;;;;;;;16.59;30.45;94027.75;4850917;29;20036;-89
2022/03/10 01:50:08;;;;;;;4.45;3.42;;;;;;;16.61;30.49;94024.53;4866126;29;20108;-90
2022/03/10 01:52:33;;;;;;;5.50;3.55;;;;;;;16.62;30.26;94020.56;4863327;29;20676;-89
2022/03/10 01:54:59;;;;;;;5.63;4.00;;;;;;;16.64;30.33;94012.69;4847874;29;20045;-90
2022/03/10 01:57:25;;;;;;;5.28;3.78;;;;;;;16.61;30.59;94014.38;4885862;29;20396;-90
2022/03/10 01:59:50;;;;;;;5.28;3.55;;;;;;;16.63;30.54;94016.63;4902176;29;20098;-90
2022/03/10 02:02:16;;;;;;;4.15;3.20;;;;;;;16.62;30.51;94013.13;4892263;29;20098;-90
2022/03/10 02:04:41;;;;;;;6.13;3.67;;;;;;;16.57;30.55;94010.34;4904689;29;20039;-90
2022/03/10 02:07:08;;;;;;;7.15;3.78;;;;;;;16.57;30.34;94011.09;4904372;29;20039;-91
2022/03/10 02:12:18;;;;;;;5.65;4.00;;;;;;;16.58;30.71;94009.13;4921162;29;20597;-90
2022/03/10 02:17:27;;;;;;;4.72;3.33;;;;;;;16.59;30.18;94013.34;4934601;29;20510;-89
2022/03/10 02:19:55;;;;;;;5.35;3.33;;;;;;;16.57;30.54;94013.09;4888001;29;20043;-89
2022/03/10 02:22:21;;;;;;;3.80;3.30;;;;;;;16.57;30.70;94013.84;4919059;29;20039;-90
2022/03/10 02:24:46;;;;;;;5.00;3.58;;;;;;;16.59;30.82;94011.38;4903140;29;20039;-89
2022/03/10 02:27:21;;;;;;;6.43;3.50;;;;;;;16.58;30.51;94009.88;4900205;29;20055;-90
2022/03/10 02:29:51;;;;;;;4.60;3.47;;;;;;;16.56;30.83;94006.88;4916272;29;20043;-89
2022/03/10 02:32:16;;;;;;;4.60;3.58;;;;;;;16.60;30.52;94007.41;4901436;29;20503;-90
2022/03/10 02:34:42;;;;;;;4.57;3.67;;;;;;;16.59;30.47;94010.63;4918393;29;20044;-91
2022/03/10 02:37:08;;;;;;;5.03;3.22;;;;;;;16.57;30.79;94016.56;4903001;29;20106;-91
2022/03/10 02:39:33;;;;;;;5.38;3.67;;;;;;;16.57;30.59;94021.28;4902207;29;20091;-93
2022/03/10 02:41:59;;;;;;;3.95;3.13;;;;;;;16.56;30.73;94022.50;4900699;29;20039;-89
2022/03/10 02:44:24;;;;;;;5.57;3.28;;;;;;;16.55;30.48;94029.19;4916580;29;20114;-91
2022/03/10 02:46:51;;;;;;;5.88;3.47;;;;;;;16.56;30.58;94030.69;4933379;29;20043;-92
2022/03/10 02:49:16;;;;;;;3.55;3.08;;;;;;;16.56;30.92;94028.72;4917012;29;20042;-92
2022/03/10 02:51:42;;;;;;;5.03;3.08;;;;;;;16.57;30.37;94030.22;4917337;29;20039;-89
2022/03/10 02:54:07;;;;;;;5.15;2.83;;;;;;;16.59;30.51;94029.72;4900655;29;20048;-89
2022/03/10 02:56:33;;;;;;;6.25;3.30;;;;;;;16.57;30.67;94038.41;4916894;29;20118;-92
2022/03/10 02:58:58;;;;;;;5.97;3.53;;;;;;;16.55;30.64;94042.84;4901708;29;20058;-90
2022/03/10 03:01:24;;;;;;;5.18;3.35;;;;;;;16.55;30.57;94035.41;4916603;28;20422;-89
2022/03/10 03:03:49;;;;;;;4.40;3.05;;;;;;;16.54;30.71;94036.63;4916580;29;20047;-93
2022/03/10 03:06:15;;;;;;;7.43;3.90;;;;;;;16.54;30.80;94039.34;4900818;29;20054;-90
2022/03/10 03:08:41;;;;;;;4.82;3.03;;;;;;;16.54;30.51;94038.59;4902026;29;20546;-90
2022/03/10 03:11:06;;;;;;;5.03;3.15;;;;;;;16.54;30.75;94041.34;4916879;29;20050;-90
2022/03/10 03:13:32;;;;;;;3.72;2.88;;;;;;;16.57;30.44;94045.84;4901624;29;20031;-90
2022/03/10 03:15:57;;;;;;;5.72;3.85;;;;;;;16.54;30.54;94046.78;4901616;29;20569;-90
2022/03/10 03:18:22;;;;;;;4.82;2.97;;;;;;;16.57;30.84;94051.28;4916667;29;20027;-92
2022/03/10 03:20:48;;;;;;;4.13;2.92;;;;;;;16.53;30.84;94048.78;4916382;29;20051;-90
2022/03/10 03:23:13;;;;;;;5.07;2.70;;;;;;;16.52;30.43;94063.66;4900251;29;20040;-90
2022/03/10 03:25:38;;;;;;;4.20;3.00;;;;;;;16.56;30.67;94063.44;4917253;29;20538;-93
2022/03/10 03:28:04;;;;;;;4.13;2.78;;;;;;;16.52;30.76;94060.91;4916296;29;20087;-89
2022/03/10 03:30:29;;;;;;;4.03;2.78;;;;;;;16.56;30.52;94072.38;4900707;29;20035;-89
2022/03/10 03:32:55;;;;;;;4.97;3.03;;;;;;;16.54;30.74;94065.91;4916721;29;20039;-91
2022/03/10 03:35:20;;;;;;;4.25;2.90;;;;;;;16.53;30.52;94078.81;4899753;29;20059;-91
2022/03/10 03:37:46;;;;;;;3.58;2.78;;;;;;;16.58;30.59;94082.81;4901068;29;20035;-89
2022/03/10 03:40:11;;;;;;;3.55;2.65;;;;;;;16.54;30.74;94082.28;4916403;29;20040;-90
2022/03/10 03:42:37;;;;;;;2.95;2.47;;;;;;;16.53;30.67;94083.50;4916688;29;20087;-91
2022/03/10 03:45:03;;;;;;;3.70;2.80;;;;;;;16.54;30.82;94082.28;4899927;28;20024;-92
2022/03/10 03:47:29;;;;;;;4.10;2.75;;;;;;;16.52;30.74;94082.75;4916604;29;20036;-89
2022/03/10 03:49:55;;;;;;;3.40;2.67;;;;;;;16.53;30.73;94088.97;4916529;29;20035;-89
2022/03/10 03:52:20;;;;;;;3.58;2.90;;;;;;;16.51;30.65;94086.72;4901648;29;20072;-90
2022/03/10 03:54:46;;;;;;;5.00;3.42;;;;;;;16.52;30.67;94095.66;4907122;29;20027;-93
2022/03/10 03:57:11;;;;;;;3.85;2.72;;;;;;;16.50;30.51;94089.94;4919146;28;20043;-91
2022/03/10 03:59:37;;;;;;;4.47;2.53;;;;;;;16.52;30.74;94084.75;4919694;29;20668;-90
2022/03/10 04:02:03;;;;;;;4.50;2.50;;;;;;;16.51;30.93;94092.19;4950894;28;20498;-89
2022/03/10 04:04:29;;;;;;;4.13;2.80;;;;;;;16.56;30.99;94086.03;4919340;29;20139;-89
2022/03/10 04:06:54;;;;;;;3.97;2.90;;;;;;;16.53;30.80;94092.44;4919614;29;20056;-92
2022/03/10 04:09:20;;;;;;;6.22;3.13;;;;;;;16.53;30.91;94094.44;4918917;29;20051;-92
2022/03/10 04:11:45;;;;;;;4.82;2.85;;;;;;;16.51;30.63;94096.88;4903483;29;20028;-90
2022/03/10 04:14:11;;;;;;;3.55;2.47;;;;;;;16.51;30.85;94099.59;4919004;29;20046;-90
2022/03/10 04:16:37;;;;;;;4.40;2.80;;;;;;;16.50;30.62;94096.13;4903015;29;20301;-89
2022/03/10 04:19:02;;;;;;;4.65;2.95;;;;;;;16.52;30.95;94095.66;4918644;28;20028;-89
2022/03/10 04:21:28;;;;;;;2.70;2.38;;;;;;;16.49;30.54;94100.09;4919120;29;20039;-90
2022/03/10 04:23:53;;;;;;;3.95;2.70;;;;;;;16.49;30.71;94091.16;4919429;29;20090;-91
2022/03/10 04:26:19;;;;;;;3.58;2.33;;;;;;;16.52;30.83;94101.09;4918540;29;20039;-91
2022/03/10 04:28:45;;;;;;;3.17;2.53;;;;;;;16.54;30.64;94091.22;4903475;29;20039;-91
2022/03/10 04:31:10;;;;;;;4.80;2.53;;;;;;;16.51;30.73;94103.09;4902416;29;20054;-91
2022/03/10 04:33:37;;;;;;;3.45;2.65;;;;;;;16.49;30.86;94102.06;4919088;29;20039;-92
2022/03/10 04:36:03;;;;;;;3.85;2.90;;;;;;;16.55;30.88;94102.88;4918208;29;20046;-89
2022/03/10 04:38:28;;;;;;;4.00;2.90;;;;;;;16.51;30.82;94105.81;4918667;29;20031;-90
2022/03/10 04:40:54;;;;;;;4.68;2.90;;;;;;;16.52;30.83;94101.84;4918751;29;20062;-91
2022/03/10 04:43:19;;;;;;;3.58;2.50;;;;;;;16.53;30.45;94102.59;4951033;29;20802;-92
2022/03/10 04:45:45;;;;;;;4.15;2.55;;;;;;;16.50;30.74;94101.59;4934081;29;20491;-90
2022/03/10 04:48:10;;;;;;;3.97;2.80;;;;;;;16.51;30.70;94103.09;4918267;28;20043;-90
2022/03/10 04:50:36;;;;;;;3.90;2.47;;;;;;;16.49;30.99;94091.91;4918517;29;20118;-90
2022/03/10 04:53:01;;;;;;;3.08;2.38;;;;;;;16.51;30.62;94102.34;4915208;29;20061;-90
2022/03/10 04:55:28;;;;;;;2.95;2.05;;;;;;;16.51;30.83;94099.59;4895366;29;20111;-90
2022/03/10 04:57:53;;;;;;;4.15;2.80;;;;;;;16.50;30.75;94098.13;4897476;29;20361;-90
2022/03/10 05:00:19;;;;;;;5.13;2.88;;;;;;;16.47;30.69;94097.09;4914682;29;20036;-91
2022/03/10 05:02:44;;;;;;;3.72;3.10;;;;;;;16.49;30.93;94099.34;4914644;29;20056;-90
2022/03/10 05:05:12;;;;;;;3.97;2.72;;;;;;;16.46;30.84;94095.59;4914102;29;20063;-91
2022/03/10 05:07:38;;;;;;;4.57;2.55;;;;;;;16.49;30.50;94099.34;4897195;29;20657;-91
2022/03/10 05:10:04;;;;;;;3.35;2.40;;;;;;;16.50;30.98;94098.84;4898285;29;20487;-88
2022/03/10 05:12:29;;;;;;;2.88;2.40;;;;;;;16.49;30.58;94093.88;4930249;29;20042;-86
2022/03/10 05:14:55;;;;;;;3.17;2.70;;;;;;;16.51;30.48;94100.34;4915514;29;20035;-93
2022/03/10 05:17:23;;;;;;;3.03;2.35;;;;;;;16.48;30.68;94095.88;4930140;29;20036;-92
2022/03/10 05:19:48;;;;;;;6.15;2.78;;;;;;;16.49;30.70;94111.00;4914211;29;20131;-90
2022/03/10 05:22:14;;;;;;;4.13;2.40;;;;;;;16.48;30.49;94108.75;4897811;29;20095;-88
2022/03/10 05:24:39;;;;;;;7.18;2.40;;;;;;;16.45;30.49;94094.84;4930540;29;20036;-88
2022/03/10 05:27:05;;;;;;;8.00;3.10;;;;;;;16.45;30.90;94111.22;4914736;29;20058;-90
2022/03/10 05:29:30;;;;;;;9.93;2.80;;;;;;;16.47;30.72;94099.81;4915841;29;20043;-88
2022/03/10 05:31:56;;;;;;;7.70;3.42;;;;;;;16.49;30.24;94104.81;4930715;29;20040;-89
2022/03/10 05:34:21;;;;;;;6.57;3.08;;;;;;;16.50;30.44;94101.59;4898922;29;20051;-88
2022/03/10 05:36:48;;;;;;;14.30;4.78;;;;;;;16.53;30.48;94105.34;4927524;29;20040;-89
2022/03/10 05:39:13;;;;;;;17.60;8.52;;;;;;;16.49;30.16;94102.81;4904144;29;20040;-88
2022/03/10 05:41:39;;;;;;;88.72;38.40;;;;;;;16.58;30.36;94102.66;4894386;29;20137;-86
2022/03/10 05:44:04;;;;;;;72.38;29.75;;;;;;;16.64;30.23;94102.75;4913367;29;20056;-89
2022/03/10 05:46:30;;;;;;;32.42;13.82;;;;;;;16.65;29.82;94107.75;4909137;29;20372;-92
2022/03/10 05:48:55;;;;;;;19.67;10.40;;;;;;;16.66;30.01;94101.06;4888581;29;20054;-89
2022/03/10 05:51:22;;;;;;;22.05;10.18;;;;;;;16.62;30.10;94097.00;4913990;29;21005;-88
2022/03/10 05:53:49;;;;;;;18.50;9.35;;;;;;;16.62;29.90;94105.94;4914304;29;20040;-93
2022/03/10 05:56:16;;;;;;;18.98;9.18;;;;;;;16.58;29.89;94110.13;4925066;28;20044;-87
2022/03/10 05:58:42;;;;;;;38.55;13.63;;;;;;;16.53;28.58;94110.81;4913015;29;20119;-91
2022/03/10 06:01:07;;;;;;;43.20;14.63;;;;;;;16.31;26.49;94111.31;4928675;29;20059;-89
2022/03/10 06:03:33;;;;;;;40.95;13.90;;;;;;;16.34;26.61;94122.03;4911380;29;20119;-90
2022/03/10 06:05:58;;;;;;;71.00;19.42;;;;;;;16.34;26.72;94124.00;4908157;29;20215;-87
2022/03/10 06:08:25;;;;;;;122.07;41.13;;;;;;;16.36;27.23;94130.47;4940398;29;20403;-90
2022/03/10 06:10:51;;;;;;;207.75;65.47;;;;;;;16.43;27.46;94121.88;4914749;29;20040;-94
2022/03/10 06:13:17;;;;;;;143.38;53.20;;;;;;;16.44;27.94;94117.19;4922483;29;20043;-87
2022/03/10 06:15:42;;;;;;;152.65;61.15;;;;;;;16.46;28.11;94122.88;4917409;29;20052;-93
2022/03/10 06:18:08;;;;;;;115.38;50.53;;;;;;;16.50;28.84;94128.13;4922035;29;20495;-94
2022/03/10 06:20:34;;;;;;;161.13;72.75;;;;;;;16.48;28.94;94125.13;4939230;29;20048;-89
2022/03/10 06:23:00;;;;;;;165.75;71.93;;;;;;;16.52;28.73;94125.69;4934617;29;20027;-89
2022/03/10 06:25:30;;;;;;;125.68;53.50;;;;;;;16.49;29.32;94127.38;4906516;29;20055;-88
2022/03/10 06:27:56;;;;;;;129.23;59.33;;;;;;;16.51;29.39;94132.34;4915170;29;20415;-86
2022/03/10 06:30:21;;;;;;;91.35;42.63;;;;;;;16.53;29.87;94133.38;4929634;29;20378;-89
2022/03/10 06:32:47;;;;;;;118.03;48.83;;;;;;;16.50;29.96;94131.59;4913519;29;20048;-90
2022/03/10 06:35:12;;;;;;;102.53;44.22;;;;;;;16.52;29.70;94131.88;4900480;29;20384;-89
2022/03/10 06:37:39;;;;;;;114.63;44.72;;;;;;;16.54;29.33;94137.63;4915272;29;20040;-91
2022/03/10 06:40:05;;;;;;;109.22;34.97;;;;;;;16.51;28.77;94122.19;4902232;29;20075;-91
2022/03/10 06:42:31;;;;;;;119.57;38.67;;;;;;;16.49;28.86;94141.03;4906130;29;20058;-93
2022/03/10 06:44:56;;;;;;;116.03;38.00;;;;;;;16.51;28.83;94135.84;4916141;29;20036;-89
2022/03/10 06:47:23;;;;;;;134.18;43.85;;;;;;;16.51;29.49;94135.84;4934042;29;20044;-91
2022/03/10 06:49:48;;;;;;;105.93;38.53;;;;;;;16.53;29.42;94143.56;4900051;29;20431;-91
2022/03/10 06:52:14;;;;;;;86.70;37.78;;;;;;;16.56;29.39;94135.16;4919460;29;20119;-92
2022/03/10 06:54:39;;;;;;;78.55;35.35;;;;;;;16.61;29.65;94133.72;4900620;29;20036;-90
2022/03/10 06:57:05;;;;;;;83.32;35.85;;;;;;;16.63;29.41;94137.50;4918392;29;20053;-92
2022/03/10 06:59:31;;;;;;;91.10;36.92;;;;;;;16.62;29.47;94137.94;4916223;29;20538;-91
2022/03/10 07:01:56;;;;;;;87.13;36.88;;;;;;;16.67;29.46;94140.03;4904288;29;20062;-87
2022/03/10 07:04:22;;;;;;;72.78;34.58;;;;;;;16.67;29.44;94151.66;4933716;29;20051;-88
2022/03/10 07:06:47;;;;;;;65.43;23.98;;;;;;;16.50;27.04;94158.91;4902926;29;20031;-85
2022/03/10 07:09:13;;;;;;;31.50;15.15;;;;;;;16.34;25.95;94157.50;4934326;29;20046;-85
2022/03/10 07:11:38;;;;;;;48.10;14.98;;;;;;;16.21;26.15;94165.28;4936642;29;20126;-91
2022/03/10 07:14:04;;;;;;;43.17;14.13;;;;;;;16.25;26.33;94163.09;4919640;29;20434;-87
2022/03/10 07:16:29;;;;;;;54.90;15.45;;;;;;;16.37;26.34;94170.19;4937644;29;20234;-90
2022/03/10 07:18:54;;;;;;;83.95;22.10;;;;;;;16.48;27.16;94163.34;4903478;29;20729;-86
2022/03/10 07:21:20;;;;;;;56.85;18.17;;;;;;;16.54;26.43;94166.88;4948594;29;20109;-89
2022/03/10 07:23:46;;;;;;;49.95;18.45;;;;;;;16.61;26.63;94167.22;4921254;29;20043;-91
2022/03/10 07:26:12;;;;;;;52.03;19.40;;;;;;;16.63;27.13;94164.78;4904161;29;20540;-85
2022/03/10 07:28:38;;;;;;;49.08;19.92;;;;;;;16.68;27.28;94166.06;4954023;28;20035;-89
2022/03/10 07:31:03;;;;;;;46.83;19.45;;;;;;;16.68;28.53;94166.06;4926196;29;20047;-87
2022/03/10 07:33:28;;;;;;;55.25;22.33;;;;;;;16.71;28.10;94165.84;4921631;29;20043;-94
2022/03/10 07:35:54;;;;;;;55.92;20.48;;;;;;;16.73;28.19;94173.56;4894360;29;20550;-91
2022/03/10 07:38:20;;;;;;;56.05;21.90;;;;;;;16.74;28.00;94166.88;4910088;29;20056;-90
2022/03/10 07:40:45;;;;;;;54.47;21.02;;;;;;;16.70;28.38;94172.53;4894849;29;20055;-86
2022/03/10 07:43:10;;;;;;;44.97;20.60;;;;;;;16.75;28.18;94169.13;4896319;29;20111;-91
2022/03/10 07:45:36;;;;;;;50.05;25.73;;;;;;;16.79;28.81;94171.66;4893546;29;20393;-89
2022/03/10 07:48:01;;;;;;;72.88;41.50;;;;;;;16.82;28.74;94172.66;4893894;29;20412;-87
2022/03/10 07:50:30;;;;;;;97.45;58.53;;;;;;;16.82;28.78;94172.66;4908683;29;20483;-93
2022/03/10 07:52:55;;;;;;;140.90;80.95;;;;;;;16.86;28.32;94176.69;4875542;29;20117;-88
2022/03/10 07:55:21;;;;;;;175.82;113.80;;;;;;;16.84;28.54;94168.22;4892931;29;20523;-90
2022/03/10 07:57:46;;;;;;;224.18;128.93;;;;;;;16.87;28.83;94166.53;4910609;29;20044;-91
2022/03/10 08:00:12;;;;;;;228.23;128.68;;;;;;;16.91;28.67;94175.22;4871937;29;20443;-93
2022/03/10 08:02:37;;;;;;;229.02;135.73;;;;;;;16.93;28.52;94170.78;4892902;29;20051;-90
2022/03/10 08:05:04;;;;;;;215.82;132.68;;;;;;;16.93;29.09;94176.25;4881186;29;20055;-93
2022/03/10 08:07:32;;;;;;;238.88;150.70;;;;;;;16.94;29.42;94175.00;4906996;29;20054;-88
2022/03/10 08:10:00;;;;;;;249.35;159.38;;;;;;;16.94;28.85;94168.81;4903962;29;20123;-93
2022/03/10 08:12:30;;;;;;;268.50;172.93;;;;;;;16.95;28.78;94164.84;4904941;29;20133;-92
2022/03/10 08:14:56;;;;;;;308.58;190.38;;;;;;;16.97;28.67;94167.84;4921471;29;20222;-90
2022/03/10 08:17:21;;;;;;;297.73;181.20;;;;;;;16.98;29.29;94163.88;4922172;29;20521;-90
2022/03/10 08:19:46;;;;;;;287.05;180.27;;;;;;;16.97;29.07;94159.66;4903034;28;20040;-91
2022/03/10 08:22:14;;;;;;;285.73;178.38;;;;;;;17.01;29.11;94163.66;4916421;28;20047;-91
2022/03/10 08:24:41;;;;;;;263.58;159.63;;;;;;;17.01;28.92;94160.94;4918537;29;20062;-89
2022/03/10 08:27:07;;;;;;;223.25;130.05;;;;;;;16.99;29.60;94163.41;4933261;29;20095;-90
2022/03/10 08:29:33;;;;;;;230.57;135.68;;;;;;;17.02;28.89;94156.22;4900185;29;20538;-90
2022/03/10 08:31:58;;;;;;;215.55;136.70;;;;;;;17.04;28.80;94156.50;4920115;29;20050;-93
2022/03/10 08:34:23;;;;;;;207.38;129.00;;;;;;;17.03;28.87;94158.47;4930287;28;20035;-90
2022/03/10 08:36:49;;;;;;;167.88;107.00;;;;;;;17.05;28.89;94155.25;4925038;29;20433;-90
2022/03/10 08:39:15;;;;;;;187.90;112.28;;;;;;;17.06;28.80;94162.22;4915790;28;20048;-92
2022/03/10 08:41:40;;;;;;;185.48;112.07;;;;;;;17.04;28.97;94157.25;4891389;29;20059;-89
2022/03/10 08:44:05;;;;;;;198.70;114.43;;;;;;;17.04;29.31;94157.25;4933148;29;20558;-91
2022/03/10 08:46:32;;;;;;;189.15;119.60;;;;;;;17.06;29.25;94162.22;4903618;29;20035;-90
2022/03/10 08:48:57;;;;;;;168.25;105.75;;;;;;;17.06;29.22;94156.75;4934697;29;20434;-92
2022/03/10 08:51:22;;;;;;;188.70;113.03;;;;;;;17.07;29.42;94164.47;4902952;29;20520;-93
2022/03/10 08:53:48;;;;;;;166.05;102.47;;;;;;;17.08;29.34;94159.75;4917112;29;20039;-92
2022/03/10 08:56:13;;;;;;;161.52;103.95;;;;;;;17.05;29.23;94158.75;4919375;28;20094;-93
2022/03/10 08:58:40;;;;;;;259.13;147.18;;;;;;;17.11;29.47;94156.78;4921038;29;20051;-92
2022/03/10 09:01:06;;;;;;;217.15;128.60;;;;;;;17.09;29.23;94164.75;4908848;28;20039;-93
2022/03/10 09:03:31;;;;;;;204.63;120.60;;;;;;;17.12;29.36;94163.00;4907066;29;20049;-90
2022/03/10 09:05:57;;;;;;;159.07;88.00;;;;;;;17.04;28.58;94151.03;4948383;28;20047;-90
2022/03/10 09:08:23;;;;;;;134.25;74.22;;;;;;;17.07;28.21;94158.25;4920455;29;20465;-91
2022/03/10 09:10:49;;;;;;;134.43;80.75;;;;;;;17.04;28.23;94151.78;4860175;29;20163;-91
2022/03/10 09:13:14;;;;;;;140.77;82.28;;;;;;;17.01;28.09;94155.47;4875574;29;20048;-90
2022/03/10 09:15:40;;;;;;;141.27;89.70;;;;;;;17.03;28.46;94169.41;4876312;29;20051;-90
2022/03/10 09:18:08;;;;;;;154.48;91.68;;;;;;;17.05;28.55;94158.00;4860971;29;20044;-90
2022/03/10 09:20:33;;;;;;;140.02;85.32;;;;;;;17.06;28.60;94173.91;4864419;29;20042;-91
2022/03/10 09:22:59;;;;;;;145.77;93.43;;;;;;;17.08;28.65;94165.97;4862677;29;20092;-90
2022/03/10 09:25:24;;;;;;;195.10;112.93;;;;;;;17.10;29.13;94163.47;4845341;29;20080;-94
2022/03/10 09:27:50;;;;;;;149.15;89.03;;;;;;;17.12;29.15;94171.94;4878513;29;20045;-93
2022/03/10 09:30:16;;;;;;;169.45;100.63;;;;;;;17.11;29.10;94162.25;4843621;29;20055;-91
2022/03/10 09:32:45;;;;;;;168.00;100.15;;;;;;;17.11;28.98;94156.78;4878832;29;20052;-93
2022/03/10 09:35:17;;;;;;;174.80;101.55;;;;;;;17.08;29.04;94155.03;4861579;29;20131;-92
2022/03/10 09:37:42;;;;;;;106.90;61.65;;;;;;;17.08;27.07;94157.03;4902055;29;20051;-92
2022/03/10 09:40:11;;;;;;;103.63;50.45;;;;;;;17.05;26.91;94149.78;4865004;29;20445;-94
2022/03/10 09:42:36;;;;;;;173.85;95.40;;;;;;;17.01;28.01;94150.00;4921980;29;20107;-92
2022/03/10 09:45:05;;;;;;;142.93;81.43;;;;;;;17.06;27.73;94152.03;4891320;29;20115;-91
2022/03/10 09:47:31;;;;;;;165.15;93.93;;;;;;;17.08;28.18;94148.84;4922753;29;20051;-91
2022/03/10 09:49:57;;;;;;;215.90;119.90;;;;;;;17.13;28.44;94156.31;4903834;29;20028;-93
2022/03/10 09:52:22;;;;;;;213.93;120.30;;;;;;;17.10;28.84;94149.81;4904685;29;20082;-88
2022/03/10 09:54:48;;;;;;;246.40;134.95;;;;;;;17.12;28.26;94141.88;4935203;29;20070;-91
2022/03/10 09:57:14;;;;;;;260.33;133.10;;;;;;;17.14;28.58;94144.88;4921586;29;20051;-89
2022/03/10 09:59:53;;;;;;;250.65;129.02;;;;;;;17.14;28.25;94144.88;4905446;29;20063;-88
2022/03/10 10:02:19;;;;;;;254.77;124.53;;;;;;;17.18;28.60;94149.38;4917555;29;20046;-88
2022/03/10 10:04:46;;;;;;;218.40;115.93;;;;;;;17.17;28.75;94145.91;4920953;29;20039;-88
2022/03/10 10:07:12;;;;;;;193.90;102.15;;;;;;;17.17;29.05;94150.63;4920281;29;20043;-89
2022/03/10 10:09:41;;;;;;;208.95;104.50;;;;;;;17.19;28.62;94148.16;4937688;29;20094;-88
2022/03/10 10:12:07;;;;;;;213.48;105.88;;;;;;;17.19;28.78;94153.63;4936787;29;20051;-88
2022/03/10 10:14:37;;;;;;;196.70;102.53;;;;;;;17.19;29.02;94145.41;4905573;29;20401;-87
2022/03/10 10:17:03;;;;;;;185.70;102.30;;;;;;;17.20;28.93;94152.38;4905874;29;20039;-89
2022/03/10 10:19:32;;;;;;;165.25;90.57;;;;;;;17.19;28.31;94153.63;4906484;29;20038;-92
2022/03/10 10:22:13;;;;;;;154.38;87.32;;;;;;;17.14;28.50;94150.34;4906286;29;20042;-90
2022/03/10 10:24:41;;;;;;;194.60;84.32;;;;;;;17.18;28.71;94152.13;4920825;29;20047;-91
2022/03/10 10:27:14;;;;;;;181.93;83.47;;;;;;;17.15;28.51;94151.09;4904458;29;20059;-89
2022/03/10 10:29:52;;;;;;;167.43;77.95;;;;;;;17.17;28.89;94140.44;4917610;29;20784;-90
2022/03/10 10:32:53;;;;;;;163.93;81.15;;;;;;;17.16;29.01;94138.94;4918914;29;20043;-90
2022/03/10 10:35:22;;;;;;;167.88;80.63;;;;;;;17.18;29.31;94146.66;4875007;29;20591;-88
2022/03/10 10:37:49;;;;;;;181.25;79.78;;;;;;;17.18;28.88;94141.94;4863418;29;20136;-89
2022/03/10 10:40:23;;;;;;;183.27;83.22;;;;;;;17.20;28.81;94136.00;4866999;29;20053;-88
2022/03/10 10:42:48;;;;;;;148.30;76.68;;;;;;;17.17;28.78;94137.72;4876780;29;20037;-91
2022/03/10 10:45:31;;;;;;;180.00;86.80;;;;;;;17.17;28.93;94134.97;4845168;29;20214;-91
2022/03/10 10:48:03;;;;;;;207.07;84.70;;;;;;;17.17;29.09;94136.97;4860782;29;20472;-90
2022/03/10 10:50:31;;;;;;;169.43;79.00;;;;;;;17.17;28.81;94134.22;4845542;29;20540;-90
2022/03/10 10:52:56;;;;;;;164.00;75.65;;;;;;;17.15;29.24;94137.44;4875362;29;20047;-91
2022/03/10 10:55:22;;;;;;;144.70;70.57;;;;;;;17.17;29.12;94131.50;4844300;29;20057;-92
2022/03/10 10:57:47;;;;;;;151.82;71.38;;;;;;;17.16;29.24;94138.94;4859877;29;20428;-89
2022/03/10 11:00:13;;;;;;;134.73;64.97;;;;;;;17.18;29.44;94128.28;4843721;29;20049;-90
2022/03/10 11:02:42;;;;;;;125.95;64.63;;;;;;;17.18;29.01;94124.81;4852797;29;20049;-91
2022/03/10 11:05:11;;;;;;;125.40;61.60;;;;;;;17.19;28.86;94118.84;4857153;29;20039;-91
2022/03/10 11:07:36;;;;;;;127.43;64.30;;;;;;;17.17;29.12;94112.38;4919340;29;20039;-92
2022/03/10 11:10:03;;;;;;;133.48;65.90;;;;;;;17.20;29.18;94123.09;4919260;29;20509;-89
2022/03/10 11:12:28;;;;;;;159.48;69.72;;;;;;;17.29;30.64;94122.16;4905770;29;20126;-86
2022/03/10 11:14:55;;;;;;;130.90;67.65;;;;;;;17.31;29.14;94119.69;4937141;29;20036;-92
2022/03/10 11:17:20;;;;;;;138.45;65.47;;;;;;;17.29;29.39;94122.91;4907238;29;20036;-91
2022/03/10 11:19:47;;;;;;;115.57;62.72;;;;;;;17.30;29.28;94115.47;4909713;29;20058;-92
2022/03/10 11:22:40;;;;;;;109.50;58.10;;;;;;;17.28;29.22;94118.69;4905150;29;20035;-88